MSC Fortunate — 3FLG6 — position and weather

sailwx.info

Track history (hours):
 
Tides and Currents Weather Stations Pressure Air Temp Water Temp Dewpoint Dewpoint Depression Visibility Wind Speed Wind Dir Waves Ship Positions

MSC Fortunate

Last reported at 2015-Jun-30 09:28 UTC. Time now 2015-Jun-30 09:57 UTC.
Position N 39°26' W 000°19'.

Length 275 m; draft 10.3 m.

Type: Ship. MMSI: 356708000.

Date/timePositionNaut miles runAvg speedWind from/ knotsBaromVisibWave heightAir tempDewpointWater temp
2015-Jun-30 09:28N 39°26' W 000°19'0 0.0
2015-Jun-30 08:31N 39°26' W 000°19'0 0.0
2015-Jun-30 07:31N 39°26' W 000°19'0 0.0
2015-Jun-30 06:31N 39°26' W 000°19'0 0.0
2015-Jun-30 05:31N 39°26' W 000°19'0 0.0
2015-Jun-30 04:31N 39°26' W 000°19'0 0.0
2015-Jun-30 03:31N 39°26' W 000°19'0 0.0
2015-Jun-30 02:31N 39°26' W 000°19'0 0.0
2015-Jun-30 01:31N 39°26' W 000°19'0 0.0
2015-Jun-30 00:31N 39°26' W 000°19'0 0.0
2015-Jun-29 23:31N 39°26' W 000°19'0 0.0
2015-Jun-29 22:31N 39°26' W 000°19'0 0.0
2015-Jun-29 21:31N 39°26' W 000°19'0 0.0
2015-Jun-29 20:31N 39°26' W 000°19'0 0.0
2015-Jun-29 19:28N 39°26' W 000°19'0 0.0
2015-Jun-29 18:31N 39°26' W 000°19'0 0.0
2015-Jun-29 17:31N 39°26' W 000°19'0 0.0
2015-Jun-29 16:31N 39°26' W 000°19'1 0.9
2015-Jun-29 15:33N 39°26' W 000°18'8 8.4
2015-Jun-29 14:33N 39°24' W 000°08'1212.3
2015-Jun-29 13:33N 39°24' E 000°08'2 1.6
2015-Jun-29 12:23N 39°23' E 000°10'24 3.5
2015-Jun-29 05:30N 39°18' E 000°40'1313.2
2015-Jun-29 04:33N 39°16' E 000°56'1616.2
2015-Jun-29 03:33N 39°13' E 001°17'1616.3
2015-Jun-29 02:33N 39°11' E 001°38'1616.5
2015-Jun-29 01:33N 39°08' E 001°59'1616.4
2015-Jun-29 00:33N 39°04' E 002°19'1716.6
2015-Jun-28 23:33N 39°01' E 002°40'1716.6
2015-Jun-28 22:33N 38°57' E 003°01'1616.2
2015-Jun-28 21:33N 38°54' E 003°22'1616.0
2015-Jun-28 20:33N 38°50' E 003°42'1616.4
2015-Jun-28 19:34N 38°47' E 004°02'1616.2
2015-Jun-28 18:33N 38°44' E 004°22'1616.1
2015-Jun-28 17:33N 38°40' E 004°43'1616.0
2015-Jun-28 16:33N 38°37' E 005°03'1616.2
2015-Jun-28 15:33N 38°34' E 005°23'1616.1
2015-Jun-28 14:33N 38°31' E 005°43'37 5.3
2015-Jun-28 07:33N 38°22' E 006°29'7 7.1
2015-Jun-28 06:33N 38°20' E 006°38'2410.4
2015-Jun-28 04:16N 38°15' E 007°08'1216.4
2015-Jun-28 03:33N 38°13' E 007°22'3616.7
2015-Jun-28 01:25N 38°06' E 008°07'1516.9
2015-Jun-28 00:33N 38°03' E 008°25'1716.8
2015-Jun-27 23:33N 37°59' E 008°46'1716.8
2015-Jun-27 22:33N 37°56' E 009°07'1616.3
2015-Jun-27 21:33N 37°52' E 009°27'1615.9
2015-Jun-27 20:33N 37°49' E 009°47'3415.6
2015-Jun-27 18:23N 37°40' E 010°28'1615.3
2015-Jun-27 17:19N 37°34' E 010°47'1815.5
2015-Jun-27 16:11N 37°28' E 011°08'1115.7
2015-Jun-27 15:28N 37°24' E 011°21'1515.8
2015-Jun-27 14:32N 37°16' E 011°37'1915.9
2015-Jun-27 13:20N 37°08' E 011°59'1215.9
2015-Jun-27 12:33N 37°03' E 012°13'1615.8
2015-Jun-27 11:33N 36°57' E 012°31'1615.7
2015-Jun-27 10:33N 36°51' E 012°49'1615.8
2015-Jun-27 09:33N 36°46' E 013°08'1615.8
2015-Jun-27 08:33N 36°42' E 013°27'1615.9
2015-Jun-27 07:33N 36°37' E 013°46'1616.0
2015-Jun-27 06:33N 36°33' E 014°05'1616.4
2015-Jun-27 05:33N 36°29' E 014°25'1616.4
2015-Jun-27 04:33N 36°25' E 014°45'1616.1
2015-Jun-27 03:33N 36°20' E 015°04'46216.3
2015-Jun-25 23:11N 34°20' E 024°11'1116.6
2015-Jun-25 22:33N 34°17' E 024°23'20715.9
2015-Jun-25 09:33N 33°23' E 028°24'3215.9
2015-Jun-25 07:31N 33°15' E 029°01'1616.1
2015-Jun-25 06:33N 33°11' E 029°19'  
2015-Jun-22 18:25N 31°51' E 034°34'18 5.4
2015-Jun-22 15:07N 32°09' E 034°36'814.9
2015-Jun-22 14:33N 32°17' E 034°39'1716.6
2015-Jun-22 13:33N 32°33' E 034°44'1616.4
2015-Jun-22 12:33N 32°49' E 034°49'  
Track history (hours):
 
Tides and Currents Weather Stations Pressure Air Temp Water Temp Dewpoint Dewpoint Depression Visibility Wind Speed Wind Dir Waves Ship Positions

MSC Fortunate

Last reported at 2015-Jun-30 09:28 UTC. Time now 2015-Jun-30 09:57 UTC.
Position N 39°26' W 000°19'.

Length 275 m; draft 10.3 m.

Type: Ship. MMSI: 356708000.

Date/timePositionNaut miles runAvg speedWind from/ knotsBaromVisibWave heightAir tempDewpointWater temp
2015-Jun-30 09:28N 39°26' W 000°19'0 0.0
2015-Jun-30 08:31N 39°26' W 000°19'0 0.0
2015-Jun-30 07:31N 39°26' W 000°19'0 0.0
2015-Jun-30 06:31N 39°26' W 000°19'0 0.0
2015-Jun-30 05:31N 39°26' W 000°19'0 0.0
2015-Jun-30 04:31N 39°26' W 000°19'0 0.0
2015-Jun-30 03:31N 39°26' W 000°19'0 0.0
2015-Jun-30 02:31N 39°26' W 000°19'0 0.0
2015-Jun-30 01:31N 39°26' W 000°19'0 0.0
2015-Jun-30 00:31N 39°26' W 000°19'0 0.0
2015-Jun-29 23:31N 39°26' W 000°19'0 0.0
2015-Jun-29 22:31N 39°26' W 000°19'0 0.0
2015-Jun-29 21:31N 39°26' W 000°19'0 0.0
2015-Jun-29 20:31N 39°26' W 000°19'0 0.0
2015-Jun-29 19:28N 39°26' W 000°19'0 0.0
2015-Jun-29 18:31N 39°26' W 000°19'0 0.0
2015-Jun-29 17:31N 39°26' W 000°19'0 0.0
2015-Jun-29 16:31N 39°26' W 000°19'1 0.9
2015-Jun-29 15:33N 39°26' W 000°18'8 8.4
2015-Jun-29 14:33N 39°24' W 000°08'1212.3
2015-Jun-29 13:33N 39°24' E 000°08'2 1.6
2015-Jun-29 12:23N 39°23' E 000°10'24 3.5
2015-Jun-29 05:30N 39°18' E 000°40'1313.2
2015-Jun-29 04:33N 39°16' E 000°56'1616.2
2015-Jun-29 03:33N 39°13' E 001°17'1616.3
2015-Jun-29 02:33N 39°11' E 001°38'1616.5
2015-Jun-29 01:33N 39°08' E 001°59'1616.4
2015-Jun-29 00:33N 39°04' E 002°19'1716.6
2015-Jun-28 23:33N 39°01' E 002°40'1716.6
2015-Jun-28 22:33N 38°57' E 003°01'1616.2
2015-Jun-28 21:33N 38°54' E 003°22'1616.0
2015-Jun-28 20:33N 38°50' E 003°42'1616.4
2015-Jun-28 19:34N 38°47' E 004°02'1616.2
2015-Jun-28 18:33N 38°44' E 004°22'1616.1
2015-Jun-28 17:33N 38°40' E 004°43'1616.0
2015-Jun-28 16:33N 38°37' E 005°03'1616.2
2015-Jun-28 15:33N 38°34' E 005°23'1616.1
2015-Jun-28 14:33N 38°31' E 005°43'37 5.3
2015-Jun-28 07:33N 38°22' E 006°29'7 7.1
2015-Jun-28 06:33N 38°20' E 006°38'2410.4
2015-Jun-28 04:16N 38°15' E 007°08'1216.4
2015-Jun-28 03:33N 38°13' E 007°22'3616.7
2015-Jun-28 01:25N 38°06' E 008°07'1516.9
2015-Jun-28 00:33N 38°03' E 008°25'1716.8
2015-Jun-27 23:33N 37°59' E 008°46'1716.8
2015-Jun-27 22:33N 37°56' E 009°07'1616.3
2015-Jun-27 21:33N 37°52' E 009°27'1615.9
2015-Jun-27 20:33N 37°49' E 009°47'3415.6
2015-Jun-27 18:23N 37°40' E 010°28'1615.3
2015-Jun-27 17:19N 37°34' E 010°47'1815.5
2015-Jun-27 16:11N 37°28' E 011°08'1115.7
2015-Jun-27 15:28N 37°24' E 011°21'1515.8
2015-Jun-27 14:32N 37°16' E 011°37'1915.9
2015-Jun-27 13:20N 37°08' E 011°59'1215.9
2015-Jun-27 12:33N 37°03' E 012°13'1615.8
2015-Jun-27 11:33N 36°57' E 012°31'1615.7
2015-Jun-27 10:33N 36°51' E 012°49'1615.8
2015-Jun-27 09:33N 36°46' E 013°08'1615.8
2015-Jun-27 08:33N 36°42' E 013°27'1615.9
2015-Jun-27 07:33N 36°37' E 013°46'1616.0
2015-Jun-27 06:33N 36°33' E 014°05'1616.4
2015-Jun-27 05:33N 36°29' E 014°25'1616.4
2015-Jun-27 04:33N 36°25' E 014°45'1616.1
2015-Jun-27 03:33N 36°20' E 015°04'46216.3
2015-Jun-25 23:11N 34°20' E 024°11'1116.6
2015-Jun-25 22:33N 34°17' E 024°23'20715.9
2015-Jun-25 09:33N 33°23' E 028°24'3215.9
2015-Jun-25 07:31N 33°15' E 029°01'1616.1
2015-Jun-25 06:33N 33°11' E 029°19'  
2015-Jun-22 18:25N 31°51' E 034°34'18 5.4
2015-Jun-22 15:07N 32°09' E 034°36'814.9
2015-Jun-22 14:33N 32°17' E 034°39'1716.6
2015-Jun-22 13:33N 32°33' E 034°44'1616.4
2015-Jun-22 12:33N 32°49' E 034°49'  

Dump ship's entire track history